createdAt,value
2019-03-18T00:02:38.483Z,19.30
2019-03-18T00:07:42.839Z,21.10
2019-03-18T00:12:47.239Z,16.97
2019-03-18T00:17:51.422Z,23.60
2019-03-18T00:22:56.701Z,16.37
2019-03-18T00:28:01.061Z,21.37
2019-03-18T00:33:05.499Z,17.43
2019-03-18T00:38:09.844Z,21.67
2019-03-18T00:43:14.160Z,20.90
2019-03-18T00:48:18.324Z,20.47
2019-03-18T00:53:22.886Z,23.30
2019-03-18T00:58:27.159Z,21.83
2019-03-18T01:03:31.402Z,17.13
2019-03-18T01:08:36.701Z,15.10
2019-03-18T01:13:40.980Z,18.43
2019-03-18T01:18:45.162Z,17.97
2019-03-18T01:23:50.260Z,23.80
2019-03-18T01:28:54.480Z,21.00
2019-03-18T01:33:58.791Z,23.97
2019-03-18T01:39:03.361Z,18.40
2019-03-18T01:44:07.682Z,17.97
2019-03-18T01:49:11.883Z,22.67
2019-03-18T01:54:16.201Z,28.77
2019-03-18T01:59:20.519Z,20.43
2019-03-18T02:04:24.781Z,17.27
2019-03-18T02:09:28.999Z,22.20
2019-03-18T02:14:33.119Z,17.17
2019-03-18T02:19:37.260Z,15.20
2019-03-18T02:24:42.321Z,22.53
2019-03-18T02:29:46.480Z,15.57
2019-03-18T02:34:50.578Z,23.77
2019-03-18T02:39:55.079Z,14.07
2019-03-18T02:44:59.359Z,16.73
2019-03-18T02:50:03.790Z,13.98
2019-03-18T02:55:08.660Z,15.63
2019-03-18T03:00:13.111Z,17.00
2019-03-18T03:05:17.932Z,13.50
2019-03-18T03:10:22.164Z,16.47
2019-03-18T03:15:26.320Z,15.80
2019-03-18T03:20:30.462Z,13.43
2019-03-18T03:25:35.521Z,11.73
2019-03-18T03:30:40.387Z,10.37
2019-03-18T03:35:44.676Z,21.50
2019-03-18T03:40:49.028Z,11.80
2019-03-18T03:45:53.274Z,18.47
2019-03-18T03:50:57.524Z,7.50
2019-03-18T03:56:01.646Z,13.37
2019-03-18T04:01:05.931Z,14.00
2019-03-18T04:06:10.214Z,14.37
2019-03-18T04:11:14.550Z,15.83
2019-03-18T04:16:18.753Z,16.93
2019-03-18T04:21:22.866Z,9.77
2019-03-18T04:26:27.919Z,7.27
2019-03-18T04:31:32.018Z,19.50
2019-03-18T04:36:36.164Z,17.47
2019-03-18T04:41:40.288Z,10.40
2019-03-18T04:46:44.424Z,17.00
2019-03-18T04:51:48.472Z,10.53
2019-03-18T04:56:52.611Z,9.00
2019-03-18T05:01:56.711Z,11.40
2019-03-18T05:07:00.823Z,15.80
2019-03-18T05:12:04.887Z,12.20
2019-03-18T05:17:09.000Z,15.20
2019-03-18T05:22:13.123Z,8.77
2019-03-18T05:27:18.167Z,12.33
2019-03-18T05:32:22.255Z,15.00
2019-03-18T05:37:26.399Z,12.10
2019-03-18T05:42:30.485Z,8.53
2019-03-18T05:47:39.622Z,12.37
2019-03-18T05:52:40.503Z,7.73
2019-03-18T05:57:44.629Z,9.33
2019-03-18T06:02:48.708Z,8.80
2019-03-18T06:07:52.851Z,15.17
2019-03-18T06:12:57.187Z,13.77
2019-03-18T06:18:01.404Z,6.53
2019-03-18T06:23:05.690Z,7.70
2019-03-18T06:28:10.030Z,10.17
2019-03-18T06:33:15.137Z,6.17
2019-03-18T06:38:19.362Z,13.40
2019-03-18T06:43:23.578Z,12.10
2019-03-18T06:48:27.757Z,16.47
2019-03-18T06:53:32.099Z,9.83
2019-03-18T06:58:36.650Z,9.00
2019-03-18T07:03:40.989Z,12.40
2019-03-18T07:08:45.516Z,5.23
2019-03-18T07:13:49.950Z,11.57
2019-03-18T07:18:54.845Z,14.30
2019-03-18T07:23:59.199Z,14.63
2019-03-18T07:29:03.889Z,10.23
2019-03-18T07:34:08.551Z,5.57
2019-03-18T07:39:12.892Z,5.50
2019-03-18T07:44:17.117Z,14.43
2019-03-18T07:49:21.400Z,6.37
2019-03-18T07:54:32.818Z,7.30
2019-03-18T07:59:31.687Z,6.03
2019-03-18T08:04:37.678Z,6.20
2019-03-18T08:09:41.580Z,6.83
2019-03-18T08:14:45.658Z,5.93
2019-03-18T08:19:50.135Z,9.13
2019-03-18T08:24:54.224Z,5.93
2019-03-18T08:29:59.540Z,4.10
2019-03-18T08:35:03.713Z,9.03
2019-03-18T08:40:08.168Z,6.93
2019-03-18T08:45:12.247Z,9.50
2019-03-18T08:50:16.408Z,10.13
2019-03-18T08:55:20.608Z,11.50
2019-03-18T09:00:24.700Z,7.50
2019-03-18T09:05:28.967Z,8.23
2019-03-18T09:10:33.027Z,9.70
2019-03-18T09:15:37.129Z,4.27
2019-03-18T09:20:41.300Z,5.97
2019-03-18T09:25:45.448Z,6.90
2019-03-18T09:30:50.488Z,8.10
2019-03-18T09:35:54.676Z,3.07
2019-03-18T09:40:58.845Z,7.97
2019-03-18T09:46:02.983Z,6.10
2019-03-18T09:51:09.576Z,9.43
2019-03-18T09:56:12.960Z,9.20
2019-03-18T10:01:17.114Z,6.90
2019-03-18T10:06:24.047Z,7.87
2019-03-18T10:11:28.131Z,8.33
2019-03-18T10:16:32.192Z,9.83
2019-03-18T10:21:36.832Z,8.17
2019-03-18T10:26:40.863Z,7.87
2019-03-18T10:31:45.147Z,8.23
2019-03-18T10:36:49.955Z,4.90
2019-03-18T10:41:56.503Z,8.70
2019-03-18T10:47:02.064Z,4.13
2019-03-18T10:52:06.466Z,8.80
2019-03-18T10:57:10.693Z,5.87
2019-03-18T11:02:16.538Z,4.53
2019-03-18T11:07:23.932Z,5.73
2019-03-18T11:12:28.142Z,6.03
2019-03-18T11:17:32.798Z,3.30
2019-03-18T11:22:38.221Z,9.10
2019-03-18T11:27:42.399Z,5.83
2019-03-18T11:32:47.554Z,8.10
2019-03-18T11:37:52.162Z,6.83
2019-03-18T11:42:56.441Z,8.10
2019-03-18T11:48:00.723Z,8.27
2019-03-18T11:53:13.885Z,5.23
2019-03-18T11:58:11.130Z,6.13
2019-03-18T12:03:15.763Z,6.97
2019-03-18T12:08:19.950Z,7.37
2019-03-18T12:13:25.895Z,4.33
2019-03-18T12:18:30.159Z,6.43
2019-03-18T12:23:34.430Z,6.83
2019-03-18T12:28:40.662Z,6.20
2019-03-18T12:33:44.973Z,3.70
2019-03-18T12:38:49.194Z,6.97
2019-03-18T12:43:53.509Z,11.07
2019-03-18T12:48:57.760Z,8.77
2019-03-18T12:54:01.965Z,11.70
2019-03-18T12:59:06.296Z,10.97
2019-03-18T13:04:10.445Z,10.70
2019-03-18T13:09:14.769Z,6.17
2019-03-18T13:14:18.915Z,8.07
2019-03-18T13:19:23.111Z,10.53
2019-03-18T13:24:27.215Z,10.03
2019-03-18T13:29:31.461Z,9.37
2019-03-18T13:34:35.727Z,14.43
2019-03-18T13:39:39.971Z,8.23
2019-03-18T13:44:44.106Z,7.93
2019-03-18T13:49:48.264Z,13.43
2019-03-18T13:54:52.437Z,13.63
2019-03-18T13:59:56.555Z,11.80
2019-03-18T14:05:00.640Z,11.87
2019-03-18T14:10:06.348Z,7.73
2019-03-18T14:15:12.665Z,11.03
2019-03-18T14:20:16.886Z,8.07
2019-03-18T14:25:21.011Z,13.57
2019-03-18T14:30:27.056Z,11.97
2019-03-18T14:35:31.295Z,15.43
2019-03-18T14:40:35.433Z,9.63
2019-03-18T14:45:39.625Z,12.77
2019-03-18T14:50:43.733Z,11.57
2019-03-18T14:55:47.880Z,19.27
2019-03-18T15:00:52.013Z,16.53
2019-03-18T15:05:56.126Z,6.57
2019-03-18T15:11:01.538Z,9.00
2019-03-18T15:16:05.851Z,12.17
2019-03-18T15:21:09.928Z,12.93
2019-03-18T15:26:14.010Z,15.27
2019-03-18T15:31:18.195Z,14.40
2019-03-18T15:36:22.687Z,13.03
2019-03-18T15:41:26.975Z,15.63
2019-03-18T15:46:31.030Z,18.00
2019-03-18T15:51:37.698Z,11.23
2019-03-18T15:56:42.093Z,18.50
2019-03-18T16:01:46.166Z,16.80
2019-03-18T16:06:50.328Z,9.97
2019-03-18T16:11:54.451Z,14.87
2019-03-18T16:17:02.204Z,12.60
2019-03-18T16:22:04.490Z,15.37
2019-03-18T16:27:08.961Z,22.87
2019-03-18T16:32:13.071Z,15.33
2019-03-18T16:37:18.335Z,20.47
2019-03-18T16:42:22.650Z,16.33
2019-03-18T16:47:31.302Z,9.90
2019-03-18T16:52:36.279Z,8.70
2019-03-18T16:57:40.702Z,9.63
2019-03-18T17:02:45.130Z,18.83
2019-03-18T17:07:49.583Z,14.73
2019-03-18T17:12:56.318Z,15.47
2019-03-18T17:18:01.511Z,14.90
2019-03-18T17:23:06.204Z,13.30
2019-03-18T17:28:10.404Z,12.80
2019-03-18T17:33:14.585Z,18.17
2019-03-18T17:38:18.962Z,20.90
2019-03-18T17:43:23.205Z,20.57
2019-03-18T17:48:28.699Z,12.60
2019-03-18T17:53:32.867Z,16.93
2019-03-18T17:58:37.047Z,24.57
2019-03-18T18:03:41.178Z,15.43
2019-03-18T18:08:45.373Z,18.90
2019-03-18T18:13:49.628Z,13.80
2019-03-18T18:18:53.830Z,21.60
2019-03-18T18:23:58.048Z,19.67
2019-03-18T18:29:02.315Z,14.97
2019-03-18T18:34:06.545Z,20.27
2019-03-18T18:39:10.807Z,14.30
2019-03-18T18:44:15.026Z,27.60
2019-03-18T18:49:19.366Z,22.48
2019-03-18T18:54:23.625Z,22.50
2019-03-18T18:59:27.768Z,15.53
2019-03-18T19:04:32.127Z,15.87
2019-03-18T19:09:36.424Z,12.13
2019-03-18T19:14:40.709Z,14.23
2019-03-18T19:19:45.005Z,16.23
2019-03-18T19:24:49.282Z,10.13
2019-03-18T19:29:55.004Z,13.50
2019-03-18T19:34:59.165Z,24.57
2019-03-18T19:40:03.887Z,12.67
2019-03-18T19:45:09.615Z,19.83
2019-03-18T19:50:15.667Z,22.63
2019-03-18T19:55:19.867Z,19.00
2019-03-18T20:00:24.228Z,21.07
2019-03-18T20:05:28.557Z,25.83
2019-03-18T20:10:32.891Z,22.07
2019-03-18T20:15:37.145Z,23.23
2019-03-18T20:20:41.317Z,22.03
2019-03-18T20:25:48.405Z,15.73
2019-03-18T20:30:52.525Z,21.40
2019-03-18T20:35:56.708Z,25.57
2019-03-18T20:41:01.005Z,19.27
2019-03-18T20:46:05.167Z,25.43
2019-03-18T20:51:11.326Z,27.20
2019-03-18T20:56:18.666Z,26.70
2019-03-18T21:01:22.805Z,34.33
2019-03-18T21:06:28.327Z,19.10
2019-03-18T21:11:35.296Z,26.43
2019-03-18T21:16:39.583Z,22.50
2019-03-18T21:21:43.765Z,27.13
2019-03-18T21:26:48.224Z,31.20
2019-03-18T21:31:52.583Z,27.07
2019-03-18T21:36:56.747Z,25.57
2019-03-18T21:42:01.163Z,20.93
2019-03-18T21:47:05.425Z,26.67
2019-03-18T21:52:09.589Z,26.00
2019-03-18T21:57:13.876Z,26.50
2019-03-18T22:02:17.981Z,30.83
2019-03-18T22:07:22.071Z,32.60
2019-03-18T22:12:26.283Z,31.90
2019-03-18T22:17:30.445Z,25.90
2019-03-18T22:22:34.655Z,27.50
2019-03-18T22:27:38.809Z,97.77
2019-03-18T22:32:43.078Z,56.70
2019-03-18T22:37:47.203Z,50.67
2019-03-18T22:42:51.413Z,26.00
2019-03-18T22:47:55.573Z,40.57
2019-03-18T22:52:59.877Z,25.57
2019-03-18T22:58:04.023Z,37.07
2019-03-18T23:03:10.075Z,26.30
2019-03-18T23:08:14.317Z,29.50
2019-03-18T23:13:18.516Z,19.80
2019-03-18T23:18:22.679Z,25.77
2019-03-18T23:23:26.914Z,22.60
2019-03-18T23:28:30.967Z,26.93
2019-03-18T23:33:35.057Z,26.33
2019-03-18T23:38:39.197Z,19.13
2019-03-18T23:43:43.457Z,22.23
2019-03-18T23:48:49.283Z,23.97
2019-03-18T23:53:53.421Z,33.83
2019-03-18T23:58:57.462Z,34.30
